sensor_id;sensor_type;location;lat;lon;timestamp;pressure;altitude;pressure_sealevel;temperature;humidity
7433;BME280;32233;49.500;7.764;2023-06-04T00:00:40;98574.56;;;14.18;47.93
7433;BME280;32233;49.500;7.764;2023-06-04T00:03:06;98577.09;;;14.12;46.95
7433;BME280;32233;49.500;7.764;2023-06-04T00:05:33;98573.88;;;14.04;47.40
7433;BME280;32233;49.500;7.764;2023-06-04T00:08:00;98568.41;;;13.99;47.66
7433;BME280;32233;49.500;7.764;2023-06-04T00:10:26;98577.56;;;13.84;47.44
7433;BME280;32233;49.500;7.764;2023-06-04T00:12:53;98577.06;;;13.94;48.76
7433;BME280;32233;49.500;7.764;2023-06-04T00:15:19;98565.66;;;13.69;49.34
7433;BME280;32233;49.500;7.764;2023-06-04T00:17:46;98567.84;;;13.47;49.60
7433;BME280;32233;49.500;7.764;2023-06-04T00:20:12;98571.44;;;13.59;51.45
7433;BME280;32233;49.500;7.764;2023-06-04T00:22:39;98574.28;;;13.64;48.89
7433;BME280;32233;49.500;7.764;2023-06-04T00:25:09;98570.84;;;13.57;49.21
7433;BME280;32233;49.500;7.764;2023-06-04T00:27:36;98575.47;;;13.68;49.19
7433;BME280;32233;49.500;7.764;2023-06-04T00:30:04;98564.31;;;13.59;49.97
7433;BME280;32233;49.500;7.764;2023-06-04T00:32:30;98572.47;;;13.58;49.65
7433;BME280;32233;49.500;7.764;2023-06-04T00:34:57;98569.63;;;13.59;51.15
7433;BME280;32233;49.500;7.764;2023-06-04T00:37:25;98562.94;;;13.50;50.61
7433;BME280;32233;49.500;7.764;2023-06-04T00:39:51;98562.34;;;13.23;50.75
7433;BME280;32233;49.500;7.764;2023-06-04T00:42:18;98568.31;;;13.12;52.40
7433;BME280;32233;49.500;7.764;2023-06-04T00:44:44;98565.69;;;13.05;51.14
7433;BME280;32233;49.500;7.764;2023-06-04T00:47:12;98572.38;;;12.83;54.07
7433;BME280;32233;49.500;7.764;2023-06-04T00:49:39;98572.66;;;13.00;53.22
7433;BME280;32233;49.500;7.764;2023-06-04T00:52:06;98571.63;;;13.01;52.58
7433;BME280;32233;49.500;7.764;2023-06-04T00:54:32;98579.19;;;12.97;53.14
7433;BME280;32233;49.500;7.764;2023-06-04T00:57:00;98580.84;;;12.98;53.35
7433;BME280;32233;49.500;7.764;2023-06-04T00:59:29;98573.47;;;13.00;54.02
7433;BME280;32233;49.500;7.764;2023-06-04T01:02:01;98571.22;;;13.04;52.03
7433;BME280;32233;49.500;7.764;2023-06-04T01:04:54;98574.94;;;12.96;53.83
7433;BME280;32233;49.500;7.764;2023-06-04T01:07:27;98577.28;;;12.73;54.31
7433;BME280;32233;49.500;7.764;2023-06-04T01:09:55;98572.38;;;12.76;53.80
7433;BME280;32233;49.500;7.764;2023-06-04T01:12:22;98581.09;;;12.45;54.34
7433;BME280;32233;49.500;7.764;2023-06-04T01:14:48;98586.19;;;12.40;54.99
7433;BME280;32233;49.500;7.764;2023-06-04T01:17:25;98590.28;;;12.36;56.01
7433;BME280;32233;49.500;7.764;2023-06-04T01:25:38;98579.03;;;12.47;54.29
7433;BME280;32233;49.500;7.764;2023-06-04T01:28:07;98575.03;;;12.31;54.43
7433;BME280;32233;49.500;7.764;2023-06-04T01:30:35;98580.38;;;12.18;57.16
7433;BME280;32233;49.500;7.764;2023-06-04T01:33:10;98583.06;;;12.05;57.09
7433;BME280;32233;49.500;7.764;2023-06-04T01:35:38;98581.63;;;12.09;57.30
7433;BME280;32233;49.500;7.764;2023-06-04T01:38:04;98580.22;;;11.93;57.50
7433;BME280;32233;49.500;7.764;2023-06-04T01:40:31;98581.66;;;11.89;56.30
7433;BME280;32233;49.500;7.764;2023-06-04T01:42:58;98582.25;;;11.64;57.91
7433;BME280;32233;49.500;7.764;2023-06-04T01:45:26;98588.34;;;11.78;57.61
7433;BME280;32233;49.500;7.764;2023-06-04T01:47:53;98590.41;;;11.63;56.98
7433;BME280;32233;49.500;7.764;2023-06-04T01:50:21;98589.38;;;11.71;57.93
7433;BME280;32233;49.500;7.764;2023-06-04T01:52:47;98590.81;;;11.47;59.39
7433;BME280;32233;49.500;7.764;2023-06-04T01:55:16;98592.88;;;11.51;59.02
7433;BME280;32233;49.500;7.764;2023-06-04T01:57:44;98593.88;;;11.44;61.31
7433;BME280;32233;49.500;7.764;2023-06-04T02:00:12;98592.63;;;11.26;60.83
7433;BME280;32233;49.500;7.764;2023-06-04T02:02:41;98590.41;;;11.23;61.05
7433;BME280;32233;49.500;7.764;2023-06-04T02:05:09;98593.66;;;11.25;62.46
7433;BME280;32233;49.500;7.764;2023-06-04T02:07:40;98584.25;;;11.09;62.28
7433;BME280;32233;49.500;7.764;2023-06-04T02:10:08;98582.84;;;11.13;60.98
7433;BME280;32233;49.500;7.764;2023-06-04T02:12:37;98582.41;;;10.97;62.44
7433;BME280;32233;49.500;7.764;2023-06-04T02:15:05;98584.66;;;11.00;61.05
7433;BME280;32233;49.500;7.764;2023-06-04T02:17:32;98578.34;;;11.01;61.80
7433;BME280;32233;49.500;7.764;2023-06-04T02:19:59;98587.50;;;10.98;60.23
7433;BME280;32233;49.500;7.764;2023-06-04T02:22:25;98583.22;;;10.90;64.37
7433;BME280;32233;49.500;7.764;2023-06-04T02:24:52;98578.53;;;11.06;62.59
7433;BME280;32233;49.500;7.764;2023-06-04T02:27:19;98579.13;;;10.88;63.94
7433;BME280;32233;49.500;7.764;2023-06-04T02:29:46;98581.78;;;11.01;63.02
7433;BME280;32233;49.500;7.764;2023-06-04T02:32:13;98582.97;;;10.85;63.68
7433;BME280;32233;49.500;7.764;2023-06-04T02:34:39;98586.22;;;10.74;66.13
7433;BME280;32233;49.500;7.764;2023-06-04T02:37:06;98581.94;;;10.73;63.39
7433;BME280;32233;49.500;7.764;2023-06-04T02:39:33;98588.03;;;10.67;64.78
7433;BME280;32233;49.500;7.764;2023-06-04T02:42:00;98587.22;;;10.73;64.84
7433;BME280;32233;49.500;7.764;2023-06-04T02:44:26;98594.13;;;10.68;65.84
7433;BME280;32233;49.500;7.764;2023-06-04T02:46:54;98579.06;;;10.68;63.25
7433;BME280;32233;49.500;7.764;2023-06-04T02:49:21;98584.09;;;10.56;63.98
7433;BME280;32233;49.500;7.764;2023-06-04T02:51:48;98591.44;;;10.54;65.58
7433;BME280;32233;49.500;7.764;2023-06-04T02:54:15;98587.13;;;10.47;62.74
7433;BME280;32233;49.500;7.764;2023-06-04T02:56:43;98597.75;;;10.60;63.10
7433;BME280;32233;49.500;7.764;2023-06-04T02:59:11;98596.72;;;10.61;65.15
7433;BME280;32233;49.500;7.764;2023-06-04T03:01:40;98593.44;;;10.46;65.21
7433;BME280;32233;49.500;7.764;2023-06-04T03:04:07;98592.03;;;10.56;64.34
7433;BME280;32233;49.500;7.764;2023-06-04T03:06:37;98592.81;;;10.44;64.95
7433;BME280;32233;49.500;7.764;2023-06-04T03:09:07;98597.50;;;10.48;64.99
7433;BME280;32233;49.500;7.764;2023-06-04T03:11:33;98591.69;;;10.66;64.72
7433;BME280;32233;49.500;7.764;2023-06-04T03:14:00;98598.28;;;10.42;65.80
7433;BME280;32233;49.500;7.764;2023-06-04T03:16:26;98599.88;;;10.30;65.32
7433;BME280;32233;49.500;7.764;2023-06-04T03:18:53;98595.81;;;10.34;65.84
7433;BME280;32233;49.500;7.764;2023-06-04T03:21:20;98592.22;;;10.13;65.14
7433;BME280;32233;49.500;7.764;2023-06-04T03:23:47;98597.84;;;10.04;66.46
7433;BME280;32233;49.500;7.764;2023-06-04T03:26:13;98605.16;;;10.02;68.56
7433;BME280;32233;49.500;7.764;2023-06-04T03:28:40;98600.31;;;9.77;70.23
7433;BME280;32233;49.500;7.764;2023-06-04T03:31:08;98604.50;;;9.65;71.93
7433;BME280;32233;49.500;7.764;2023-06-04T03:33:35;98605.06;;;9.60;69.89
7433;BME280;32233;49.500;7.764;2023-06-04T03:36:02;98597.59;;;9.64;71.64
7433;BME280;32233;49.500;7.764;2023-06-04T03:38:29;98593.28;;;9.63;70.87
7433;BME280;32233;49.500;7.764;2023-06-04T03:40:56;98594.41;;;9.75;70.93
7433;BME280;32233;49.500;7.764;2023-06-04T03:43:23;98596.63;;;9.72;71.17
7433;BME280;32233;49.500;7.764;2023-06-04T03:45:53;98592.16;;;9.72;72.71
7433;BME280;32233;49.500;7.764;2023-06-04T03:48:21;98592.44;;;9.56;74.72
7433;BME280;32233;49.500;7.764;2023-06-04T03:50:47;98594.47;;;9.32;78.11
7433;BME280;32233;49.500;7.764;2023-06-04T03:53:15;98602.19;;;9.12;79.44
7433;BME280;32233;49.500;7.764;2023-06-04T03:55:42;98601.19;;;9.13;79.03
7433;BME280;32233;49.500;7.764;2023-06-04T03:58:09;98606.72;;;9.18;79.15
7433;BME280;32233;49.500;7.764;2023-06-04T04:00:41;98612.38;;;9.15;80.32
7433;BME280;32233;49.500;7.764;2023-06-04T04:03:08;98612.75;;;9.34;79.62
7433;BME280;32233;49.500;7.764;2023-06-04T04:05:36;98616.50;;;9.25;79.10
7433;BME280;32233;49.500;7.764;2023-06-04T04:08:04;98614.56;;;9.33;78.10
7433;BME280;32233;49.500;7.764;2023-06-04T04:10:32;98613.88;;;9.25;79.71
7433;BME280;32233;49.500;7.764;2023-06-04T04:12:59;98620.63;;;9.27;79.96
7433;BME280;32233;49.500;7.764;2023-06-04T04:15:29;98620.97;;;9.24;79.36
7433;BME280;32233;49.500;7.764;2023-06-04T04:17:56;98615.94;;;9.29;80.14
7433;BME280;32233;49.500;7.764;2023-06-04T04:20:23;98617.84;;;9.35;78.78
7433;BME280;32233;49.500;7.764;2023-06-04T04:22:55;98615.50;;;9.26;80.73
7433;BME280;32233;49.500;7.764;2023-06-04T04:25:23;98615.91;;;9.23;79.29
7433;BME280;32233;49.500;7.764;2023-06-04T04:27:50;98623.41;;;9.26;80.88
7433;BME280;32233;49.500;7.764;2023-06-04T04:30:17;98622.81;;;9.24;81.17
7433;BME280;32233;49.500;7.764;2023-06-04T04:32:47;98614.66;;;9.18;79.81
7433;BME280;32233;49.500;7.764;2023-06-04T04:35:23;98620.34;;;9.22;83.12
7433;BME280;32233;49.500;7.764;2023-06-04T04:37:54;98619.16;;;9.25;82.59
7433;BME280;32233;49.500;7.764;2023-06-04T04:40:22;98624.06;;;9.28;84.42
7433;BME280;32233;49.500;7.764;2023-06-04T04:42:50;98622.13;;;9.15;84.61
7433;BME280;32233;49.500;7.764;2023-06-04T04:45:18;98628.44;;;9.21;84.56
7433;BME280;32233;49.500;7.764;2023-06-04T04:47:45;98626.81;;;9.20;84.05
7433;BME280;32233;49.500;7.764;2023-06-04T04:50:13;98625.75;;;9.35;84.22
7433;BME280;32233;49.500;7.764;2023-06-04T04:52:39;98635.31;;;9.36;84.36
7433;BME280;32233;49.500;7.764;2023-06-04T04:55:06;98623.59;;;9.46;83.27
7433;BME280;32233;49.500;7.764;2023-06-04T04:57:35;98629.81;;;9.38;85.35
7433;BME280;32233;49.500;7.764;2023-06-04T05:00:04;98622.25;;;9.78;83.53
7433;BME280;32233;49.500;7.764;2023-06-04T05:02:37;98626.72;;;10.12;80.99
7433;BME280;32233;49.500;7.764;2023-06-04T05:05:06;98629.09;;;10.63;78.27
7433;BME280;32233;49.500;7.764;2023-06-04T05:07:33;98631.25;;;11.01;74.92
7433;BME280;32233;49.500;7.764;2023-06-04T05:09:59;98630.50;;;11.33;72.95
7433;BME280;32233;49.500;7.764;2023-06-04T05:12:30;98633.97;;;11.40;73.53
7433;BME280;32233;49.500;7.764;2023-06-04T05:14:59;98641.50;;;11.50;73.41
7433;BME280;32233;49.500;7.764;2023-06-04T05:17:26;98643.16;;;11.51;72.05
7433;BME280;32233;49.500;7.764;2023-06-04T05:20:00;98639.63;;;11.18;77.86
7433;BME280;32233;49.500;7.764;2023-06-04T05:22:36;98644.31;;;11.15;76.91
7433;BME280;32233;49.500;7.764;2023-06-04T05:25:03;98640.50;;;11.71;74.77
7433;BME280;32233;49.500;7.764;2023-06-04T05:27:30;98635.94;;;12.51;71.86
7433;BME280;32233;49.500;7.764;2023-06-04T05:29:58;98637.38;;;13.69;63.84
7433;BME280;32233;49.500;7.764;2023-06-04T05:32:24;98647.88;;;14.50;61.06
7433;BME280;32233;49.500;7.764;2023-06-04T05:34:57;98642.84;;;14.60;58.82
7433;BME280;32233;49.500;7.764;2023-06-04T05:37:26;98638.44;;;15.03;57.82
7433;BME280;32233;49.500;7.764;2023-06-04T05:39:54;98642.84;;;15.39;57.41
7433;BME280;32233;49.500;7.764;2023-06-04T05:42:23;98647.88;;;15.17;58.48
7433;BME280;32233;49.500;7.764;2023-06-04T05:44:50;98649.28;;;15.61;55.43
7433;BME280;32233;49.500;7.764;2023-06-04T05:47:18;98640.75;;;16.53;51.98
7433;BME280;32233;49.500;7.764;2023-06-04T05:49:46;98639.06;;;17.16;47.45
7433;BME280;32233;49.500;7.764;2023-06-04T05:52:12;98638.75;;;17.29;45.95
7433;BME280;32233;49.500;7.764;2023-06-04T05:54:41;98637.44;;;17.61;45.65
7433;BME280;32233;49.500;7.764;2023-06-04T05:57:07;98636.78;;;18.04;45.26
7433;BME280;32233;49.500;7.764;2023-06-04T05:59:34;98641.25;;;18.54;44.82
7433;BME280;32233;49.500;7.764;2023-06-04T06:02:04;98637.56;;;18.60;44.81
7433;BME280;32233;49.500;7.764;2023-06-04T06:04:31;98639.41;;;18.76;42.18
7433;BME280;32233;49.500;7.764;2023-06-04T06:06:58;98644.56;;;19.59;42.88
7433;BME280;32233;49.500;7.764;2023-06-04T06:09:24;98648.06;;;19.92;40.56
7433;BME280;32233;49.500;7.764;2023-06-04T06:12:18;98645.22;;;19.71;36.49
7433;BME280;32233;49.500;7.764;2023-06-04T06:16:13;98646.00;;;19.67;36.43
7433;BME280;32233;49.500;7.764;2023-06-04T06:23:58;98652.59;;;17.72;39.72
7433;BME280;32233;49.500;7.764;2023-06-04T06:36:23;98676.00;;;16.79;42.72
7433;BME280;32233;49.500;7.764;2023-06-04T06:39:39;98671.38;;;17.60;41.55
7433;BME280;32233;49.500;7.764;2023-06-04T06:42:58;98670.00;;;18.80;38.40
7433;BME280;32233;49.500;7.764;2023-06-04T06:45:46;98671.84;;;19.02;36.54
7433;BME280;32233;49.500;7.764;2023-06-04T06:53:26;98675.47;;;18.91;36.02
7433;BME280;32233;49.500;7.764;2023-06-04T06:55:58;98676.53;;;19.12;38.03
7433;BME280;32233;49.500;7.764;2023-06-04T06:58:46;98674.66;;;19.61;35.41
7433;BME280;32233;49.500;7.764;2023-06-04T07:01:40;98668.97;;;21.37;34.68
7433;BME280;32233;49.500;7.764;2023-06-04T07:04:10;98671.91;;;22.48;32.97
7433;BME280;32233;49.500;7.764;2023-06-04T07:06:47;98665.25;;;22.30;33.17
7433;BME280;32233;49.500;7.764;2023-06-04T07:09:17;98666.03;;;22.10;33.77
7433;BME280;32233;49.500;7.764;2023-06-04T07:11:48;98668.19;;;22.03;32.34
7433;BME280;32233;49.500;7.764;2023-06-04T07:14:17;98672.78;;;21.97;34.07
7433;BME280;32233;49.500;7.764;2023-06-04T07:16:56;98663.59;;;23.14;30.68
7433;BME280;32233;49.500;7.764;2023-06-04T07:19:40;98665.16;;;23.70;29.44
7433;BME280;32233;49.500;7.764;2023-06-04T07:22:09;98660.81;;;25.28;26.13
7433;BME280;32233;49.500;7.764;2023-06-04T07:24:54;98667.59;;;24.59;27.66
7433;BME280;32233;49.500;7.764;2023-06-04T07:27:36;98667.47;;;25.36;26.83
7433;BME280;32233;49.500;7.764;2023-06-04T07:30:39;98673.19;;;24.67;28.13
7433;BME280;32233;49.500;7.764;2023-06-04T07:33:43;98663.88;;;25.40;27.56
7433;BME280;32233;49.500;7.764;2023-06-04T07:36:45;98664.88;;;25.07;27.82
7433;BME280;32233;49.500;7.764;2023-06-04T07:39:36;98665.06;;;24.67;27.15
7433;BME280;32233;49.500;7.764;2023-06-04T07:42:08;98660.00;;;25.28;27.45
7433;BME280;32233;49.500;7.764;2023-06-04T07:44:51;98665.69;;;25.26;27.50
7433;BME280;32233;49.500;7.764;2023-06-04T07:52:56;98680.53;;;19.63;39.79
7433;BME280;32233;49.500;7.764;2023-06-04T07:56:50;98685.56;;;19.82;37.46
7433;BME280;32233;49.500;7.764;2023-06-04T08:05:13;98665.94;;;25.11;30.30
7433;BME280;32233;49.500;7.764;2023-06-04T08:17:15;98668.44;;;24.01;28.27
7433;BME280;32233;49.500;7.764;2023-06-04T08:37:39;98675.34;;;21.26;32.83
7433;BME280;32233;49.500;7.764;2023-06-04T08:40:06;98687.97;;;21.15;34.64
7433;BME280;32233;49.500;7.764;2023-06-04T08:42:41;98683.66;;;21.14;36.40
7433;BME280;32233;49.500;7.764;2023-06-04T08:45:12;98675.44;;;21.62;33.68
7433;BME280;32233;49.500;7.764;2023-06-04T08:47:43;98690.47;;;21.42;34.54
7433;BME280;32233;49.500;7.764;2023-06-04T08:50:12;98689.53;;;21.06;34.59
7433;BME280;32233;49.500;7.764;2023-06-04T08:52:38;98689.28;;;21.08;35.32
7433;BME280;32233;49.500;7.764;2023-06-04T08:55:08;98697.56;;;20.96;33.89
7433;BME280;32233;49.500;7.764;2023-06-04T08:57:39;98697.00;;;20.89;35.21
7433;BME280;32233;49.500;7.764;2023-06-04T09:00:07;98696.53;;;20.49;38.19
7433;BME280;32233;49.500;7.764;2023-06-04T09:02:38;98695.88;;;20.74;35.21
7433;BME280;32233;49.500;7.764;2023-06-04T09:05:06;98693.13;;;21.27;35.67
7433;BME280;32233;49.500;7.764;2023-06-04T09:07:39;98687.78;;;21.42;35.97
7433;BME280;32233;49.500;7.764;2023-06-04T09:10:07;98692.22;;;21.01;35.80
7433;BME280;32233;49.500;7.764;2023-06-04T09:12:43;98694.38;;;21.04;35.71
7433;BME280;32233;49.500;7.764;2023-06-04T09:15:11;98690.38;;;21.12;36.37
7433;BME280;32233;49.500;7.764;2023-06-04T09:17:37;98692.38;;;21.42;34.70
7433;BME280;32233;49.500;7.764;2023-06-04T09:20:05;98688.09;;;21.61;36.60
7433;BME280;32233;49.500;7.764;2023-06-04T09:22:36;98684.84;;;21.54;34.18
7433;BME280;32233;49.500;7.764;2023-06-04T09:25:05;98685.41;;;21.66;36.88
7433;BME280;32233;49.500;7.764;2023-06-04T09:27:38;98692.41;;;21.83;33.49
7433;BME280;32233;49.500;7.764;2023-06-04T09:30:06;98694.84;;;21.64;35.95
7433;BME280;32233;49.500;7.764;2023-06-04T09:32:35;98685.41;;;22.07;34.44
7433;BME280;32233;49.500;7.764;2023-06-04T09:37:36;98690.28;;;21.90;34.73
7433;BME280;32233;49.500;7.764;2023-06-04T09:40:03;98683.78;;;22.11;35.34
7433;BME280;32233;49.500;7.764;2023-06-04T09:43:01;98685.97;;;22.19;34.67
7433;BME280;32233;49.500;7.764;2023-06-04T09:45:35;98684.91;;;22.25;34.16
7433;BME280;32233;49.500;7.764;2023-06-04T09:48:03;98685.97;;;22.35;34.20
7433;BME280;32233;49.500;7.764;2023-06-04T09:50:35;98688.34;;;22.52;34.51
7433;BME280;32233;49.500;7.764;2023-06-04T09:53:19;98684.31;;;22.54;34.72
7433;BME280;32233;49.500;7.764;2023-06-04T09:56:01;98691.75;;;22.93;32.61
7433;BME280;32233;49.500;7.764;2023-06-04T09:58:30;98687.44;;;22.87;32.58
7433;BME280;32233;49.500;7.764;2023-06-04T10:00:59;98689.09;;;22.72;31.25
7433;BME280;32233;49.500;7.764;2023-06-04T10:03:31;98688.53;;;22.75;33.67
7433;BME280;32233;49.500;7.764;2023-06-04T10:06:01;98693.03;;;23.11;31.44
7433;BME280;32233;49.500;7.764;2023-06-04T10:08:29;98687.97;;;22.84;30.99
7433;BME280;32233;49.500;7.764;2023-06-04T10:11:01;98686.16;;;22.64;33.26
7433;BME280;32233;49.500;7.764;2023-06-04T10:13:31;98679.72;;;22.44;33.55
7433;BME280;32233;49.500;7.764;2023-06-04T10:16:02;98675.53;;;22.98;32.07
7433;BME280;32233;49.500;7.764;2023-06-04T10:18:30;98686.88;;;22.90;33.66
7433;BME280;32233;49.500;7.764;2023-06-04T10:20:58;98680.41;;;22.86;30.67
7433;BME280;32233;49.500;7.764;2023-06-04T10:23:25;98677.09;;;23.09;32.39
7433;BME280;32233;49.500;7.764;2023-06-04T10:25:52;98680.91;;;23.08;31.90
7433;BME280;32233;49.500;7.764;2023-06-04T10:28:21;98681.91;;;23.17;33.57
7433;BME280;32233;49.500;7.764;2023-06-04T10:30:49;98680.44;;;22.91;30.29
7433;BME280;32233;49.500;7.764;2023-06-04T10:33:20;98680.16;;;22.87;31.91
7433;BME280;32233;49.500;7.764;2023-06-04T10:35:53;98682.72;;;23.23;32.38
7433;BME280;32233;49.500;7.764;2023-06-04T10:38:20;98686.47;;;23.22;31.08
7433;BME280;32233;49.500;7.764;2023-06-04T10:40:52;98674.34;;;23.24;34.14
7433;BME280;32233;49.500;7.764;2023-06-04T10:43:18;98679.47;;;23.70;31.04
7433;BME280;32233;49.500;7.764;2023-06-04T10:45:45;98680.09;;;23.96;31.23
7433;BME280;32233;49.500;7.764;2023-06-04T10:48:12;98679.84;;;23.88;29.58
7433;BME280;32233;49.500;7.764;2023-06-04T10:50:51;98676.25;;;23.68;30.10
7433;BME280;32233;49.500;7.764;2023-06-04T10:53:19;98674.38;;;23.59;30.44
7433;BME280;32233;49.500;7.764;2023-06-04T10:55:47;98677.94;;;23.93;32.19
7433;BME280;32233;49.500;7.764;2023-06-04T10:58:14;98683.25;;;24.04;30.10
7433;BME280;32233;49.500;7.764;2023-06-04T11:00:43;98683.97;;;24.43;29.19
7433;BME280;32233;49.500;7.764;2023-06-04T11:03:12;98678.88;;;24.37;28.28
7433;BME280;32233;49.500;7.764;2023-06-04T11:05:41;98683.28;;;24.57;30.29
7433;BME280;32233;49.500;7.764;2023-06-04T11:08:09;98668.19;;;25.23;29.12
7433;BME280;32233;49.500;7.764;2023-06-04T11:10:38;98671.91;;;25.27;28.98
7433;BME280;32233;49.500;7.764;2023-06-04T11:13:06;98666.00;;;25.01;28.80
7433;BME280;32233;49.500;7.764;2023-06-04T11:18:20;98671.13;;;24.30;30.07
7433;BME280;32233;49.500;7.764;2023-06-04T11:20:58;98685.31;;;24.17;29.30
7433;BME280;32233;49.500;7.764;2023-06-04T11:23:25;98676.00;;;24.28;28.15
7433;BME280;32233;49.500;7.764;2023-06-04T11:25:53;98670.75;;;24.37;30.58
7433;BME280;32233;49.500;7.764;2023-06-04T11:28:20;98681.38;;;25.05;30.29
7433;BME280;32233;49.500;7.764;2023-06-04T11:31:01;98679.88;;;24.94;29.08
7433;BME280;32233;49.500;7.764;2023-06-04T11:33:45;98666.31;;;25.23;28.31
7433;BME280;32233;49.500;7.764;2023-06-04T11:36:29;98668.38;;;25.07;27.99
7433;BME280;32233;49.500;7.764;2023-06-04T11:39:02;98663.72;;;25.51;29.10
7433;BME280;32233;49.500;7.764;2023-06-04T11:41:30;98666.06;;;26.09;25.42
7433;BME280;32233;49.500;7.764;2023-06-04T11:44:01;98669.00;;;25.42;26.07
7433;BME280;32233;49.500;7.764;2023-06-04T11:46:28;98669.16;;;26.02;26.84
7433;BME280;32233;49.500;7.764;2023-06-04T11:48:54;98666.88;;;25.39;26.61
7433;BME280;32233;49.500;7.764;2023-06-04T11:51:21;98651.94;;;25.60;26.76
7433;BME280;32233;49.500;7.764;2023-06-04T11:53:48;98654.97;;;25.91;25.19
7433;BME280;32233;49.500;7.764;2023-06-04T11:56:15;98654.09;;;25.96;25.87
7433;BME280;32233;49.500;7.764;2023-06-04T11:58:43;98656.09;;;26.64;26.28
7433;BME280;32233;49.500;7.764;2023-06-04T12:01:10;98652.00;;;26.67;25.74
7433;BME280;32233;49.500;7.764;2023-06-04T12:03:39;98648.13;;;26.27;24.76
7433;BME280;32233;49.500;7.764;2023-06-04T12:06:14;98645.84;;;26.34;25.60
7433;BME280;32233;49.500;7.764;2023-06-04T12:08:53;98645.16;;;26.83;25.51
7433;BME280;32233;49.500;7.764;2023-06-04T12:11:28;98637.34;;;26.68;24.76
7433;BME280;32233;49.500;7.764;2023-06-04T12:13:56;98641.97;;;26.54;26.14
7433;BME280;32233;49.500;7.764;2023-06-04T12:16:23;98640.41;;;26.89;24.65
7433;BME280;32233;49.500;7.764;2023-06-04T12:18:50;98638.75;;;26.79;25.16
7433;BME280;32233;49.500;7.764;2023-06-04T12:21:24;98642.66;;;26.87;24.76
7433;BME280;32233;49.500;7.764;2023-06-04T12:24:05;98640.41;;;27.53;23.92
7433;BME280;32233;49.500;7.764;2023-06-04T12:26:33;98643.94;;;27.76;24.28
7433;BME280;32233;49.500;7.764;2023-06-04T12:29:08;98637.22;;;27.73;23.56
7433;BME280;32233;49.500;7.764;2023-06-04T12:31:38;98640.84;;;28.22;22.23
7433;BME280;32233;49.500;7.764;2023-06-04T12:34:04;98633.59;;;28.40;22.52
7433;BME280;32233;49.500;7.764;2023-06-04T12:36:31;98633.47;;;27.92;24.13
7433;BME280;32233;49.500;7.764;2023-06-04T12:39:02;98639.84;;;27.87;23.49
7433;BME280;32233;49.500;7.764;2023-06-04T12:41:29;98627.31;;;28.79;22.55
7433;BME280;32233;49.500;7.764;2023-06-04T12:43:56;98635.56;;;29.05;21.37
7433;BME280;32233;49.500;7.764;2023-06-04T12:46:23;98640.66;;;28.19;21.93
7433;BME280;32233;49.500;7.764;2023-06-04T12:48:51;98634.50;;;28.04;22.04
7433;BME280;32233;49.500;7.764;2023-06-04T12:51:19;98632.50;;;27.65;22.30
7433;BME280;32233;49.500;7.764;2023-06-04T12:53:47;98637.13;;;26.64;23.73
7433;BME280;32233;49.500;7.764;2023-06-04T12:56:14;98637.25;;;26.46;25.35
7433;BME280;32233;49.500;7.764;2023-06-04T12:58:41;98630.66;;;26.19;24.36
7433;BME280;32233;49.500;7.764;2023-06-04T13:01:07;98636.97;;;26.01;23.88
7433;BME280;32233;49.500;7.764;2023-06-04T13:03:37;98630.88;;;26.09;24.02
7433;BME280;32233;49.500;7.764;2023-06-04T13:06:04;98635.53;;;25.89;23.68
7433;BME280;32233;49.500;7.764;2023-06-04T13:08:35;98628.81;;;25.68;23.93
7433;BME280;32233;49.500;7.764;2023-06-04T13:11:02;98637.03;;;25.44;23.71
7433;BME280;32233;49.500;7.764;2023-06-04T13:13:29;98622.19;;;25.60;24.12
7433;BME280;32233;49.500;7.764;2023-06-04T13:15:56;98641.00;;;25.52;22.98
7433;BME280;32233;49.500;7.764;2023-06-04T13:21:10;98636.47;;;24.85;24.70
7433;BME280;32233;49.500;7.764;2023-06-04T13:23:37;98615.59;;;24.91;27.29
7433;BME280;32233;49.500;7.764;2023-06-04T13:26:20;98628.97;;;25.01;26.07
7433;BME280;32233;49.500;7.764;2023-06-04T13:28:46;98626.63;;;24.94;25.67
7433;BME280;32233;49.500;7.764;2023-06-04T13:31:13;98627.06;;;24.83;26.10
7433;BME280;32233;49.500;7.764;2023-06-04T13:33:40;98629.34;;;24.94;27.13
7433;BME280;32233;49.500;7.764;2023-06-04T13:36:07;98632.88;;;24.71;25.13
7433;BME280;32233;49.500;7.764;2023-06-04T13:38:34;98619.72;;;24.40;25.47
7433;BME280;32233;49.500;7.764;2023-06-04T13:41:01;98636.31;;;24.53;26.17
7433;BME280;32233;49.500;7.764;2023-06-04T13:43:27;98631.84;;;24.43;25.51
7433;BME280;32233;49.500;7.764;2023-06-04T13:45:54;98621.91;;;24.62;25.17
7433;BME280;32233;49.500;7.764;2023-06-04T13:48:21;98633.13;;;24.51;26.18
7433;BME280;32233;49.500;7.764;2023-06-04T13:50:47;98626.16;;;24.44;25.84
7433;BME280;32233;49.500;7.764;2023-06-04T13:53:14;98620.53;;;24.36;25.04
7433;BME280;32233;49.500;7.764;2023-06-04T13:55:40;98621.78;;;24.49;25.26
7433;BME280;32233;49.500;7.764;2023-06-04T13:58:07;98615.94;;;24.36;26.35
7433;BME280;32233;49.500;7.764;2023-06-04T14:00:33;98624.31;;;24.40;25.49
7433;BME280;32233;49.500;7.764;2023-06-04T14:03:00;98615.91;;;24.12;26.32
7433;BME280;32233;49.500;7.764;2023-06-04T14:05:27;98614.88;;;23.79;27.39
7433;BME280;32233;49.500;7.764;2023-06-04T14:07:54;98622.19;;;23.79;26.73
7433;BME280;32233;49.500;7.764;2023-06-04T14:10:21;98610.69;;;23.63;27.60
7433;BME280;32233;49.500;7.764;2023-06-04T14:12:47;98605.47;;;23.77;27.11
7433;BME280;32233;49.500;7.764;2023-06-04T14:15:14;98606.72;;;23.89;26.83
7433;BME280;32233;49.500;7.764;2023-06-04T14:17:41;98611.81;;;23.91;27.58
7433;BME280;32233;49.500;7.764;2023-06-04T14:20:07;98614.22;;;23.58;27.06
7433;BME280;32233;49.500;7.764;2023-06-04T14:22:38;98610.56;;;23.44;28.30
7433;BME280;32233;49.500;7.764;2023-06-04T14:25:06;98613.66;;;23.66;26.84
7433;BME280;32233;49.500;7.764;2023-06-04T14:27:34;98609.38;;;23.60;26.36
7433;BME280;32233;49.500;7.764;2023-06-04T14:30:04;98606.22;;;23.48;27.42
7433;BME280;32233;49.500;7.764;2023-06-04T14:32:31;98610.44;;;23.59;27.17
7433;BME280;32233;49.500;7.764;2023-06-04T14:35:00;98610.41;;;23.64;27.06
7433;BME280;32233;49.500;7.764;2023-06-04T14:37:26;98595.94;;;23.16;28.10
7433;BME280;32233;49.500;7.764;2023-06-04T14:39:53;98600.09;;;23.37;26.93
7433;BME280;32233;49.500;7.764;2023-06-04T14:42:20;98588.69;;;23.11;26.95